createdAt,value
2019-01-30T00:00:04.236Z,5.10
2019-01-30T00:02:34.514Z,4.47
2019-01-30T00:05:04.931Z,3.40
2019-01-30T00:07:34.937Z,4.42
2019-01-30T00:10:06.758Z,4.62
2019-01-30T00:12:37.242Z,5.30
2019-01-30T00:15:08.198Z,4.80
2019-01-30T00:17:38.584Z,4.60
2019-01-30T00:20:09.082Z,3.45
2019-01-30T00:22:39.321Z,5.30
2019-01-30T00:25:09.493Z,4.72
2019-01-30T00:27:39.405Z,5.72
2019-01-30T00:30:11.701Z,6.12
2019-01-30T00:32:41.600Z,6.75
2019-01-30T00:35:11.631Z,6.00
2019-01-30T00:37:41.954Z,4.40
2019-01-30T00:40:12.296Z,5.12
2019-01-30T00:42:43.100Z,4.92
2019-01-30T00:45:14.273Z,4.60
2019-01-30T00:47:44.342Z,5.92
2019-01-30T00:50:14.946Z,4.40
2019-01-30T00:52:48.879Z,4.75
2019-01-30T00:55:19.053Z,4.97
2019-01-30T00:57:49.026Z,5.45
2019-01-30T01:00:20.609Z,5.70
2019-01-30T01:02:51.331Z,6.90
2019-01-30T01:05:23.776Z,5.65
2019-01-30T01:07:54.157Z,5.22
2019-01-30T01:10:24.352Z,5.22
2019-01-30T01:12:54.651Z,5.20
2019-01-30T01:15:24.880Z,5.87
2019-01-30T01:17:55.212Z,5.87
2019-01-30T01:20:25.493Z,5.67
2019-01-30T01:22:55.457Z,5.47
2019-01-30T01:25:25.845Z,6.72
2019-01-30T01:27:56.001Z,5.12
2019-01-30T01:30:27.695Z,5.58
2019-01-30T01:32:57.913Z,5.33
2019-01-30T01:35:27.994Z,6.17
2019-01-30T01:37:58.111Z,6.53
2019-01-30T01:40:28.340Z,5.35
2019-01-30T01:42:58.225Z,6.05
2019-01-30T01:45:28.401Z,6.55
2019-01-30T01:47:58.304Z,5.35
2019-01-30T01:50:28.314Z,5.75
2019-01-30T01:52:58.967Z,6.33
2019-01-30T01:55:29.441Z,5.87
2019-01-30T01:57:59.781Z,5.05
2019-01-30T02:00:35.654Z,6.42
2019-01-30T02:03:01.854Z,6.12
2019-01-30T02:05:32.076Z,5.25
2019-01-30T02:08:01.995Z,6.00
2019-01-30T02:10:31.996Z,4.45
2019-01-30T02:13:01.984Z,4.95
2019-01-30T02:15:31.942Z,4.28
2019-01-30T02:18:02.104Z,4.97
2019-01-30T02:20:33.745Z,7.47
2019-01-30T02:23:03.843Z,6.65
2019-01-30T02:25:34.041Z,5.80
2019-01-30T02:28:04.270Z,4.15
2019-01-30T02:30:34.429Z,7.35
2019-01-30T02:33:04.587Z,5.35
2019-01-30T02:35:34.832Z,6.37
2019-01-30T02:38:05.383Z,6.22
2019-01-30T02:40:35.611Z,6.28
2019-01-30T02:43:05.967Z,3.25
2019-01-30T02:45:36.195Z,5.75
2019-01-30T02:48:06.277Z,6.72
2019-01-30T02:50:37.109Z,6.20
2019-01-30T02:53:07.746Z,5.45
2019-01-30T02:55:37.750Z,7.03
2019-01-30T02:58:07.763Z,4.95
2019-01-30T03:00:38.286Z,6.22
2019-01-30T03:03:08.556Z,5.53
2019-01-30T03:05:38.458Z,5.45
2019-01-30T03:08:08.439Z,6.35
2019-01-30T03:10:38.339Z,5.80
2019-01-30T03:13:08.474Z,5.80
2019-01-30T03:15:39.899Z,6.00
2019-01-30T03:18:10.087Z,7.85
2019-01-30T03:20:39.990Z,5.97
2019-01-30T03:23:10.081Z,6.37
2019-01-30T03:25:40.132Z,6.50
2019-01-30T03:28:10.279Z,6.10
2019-01-30T03:30:41.993Z,5.20
2019-01-30T03:33:11.889Z,6.30
2019-01-30T03:35:42.128Z,6.22
2019-01-30T03:38:12.031Z,6.80
2019-01-30T03:40:42.085Z,6.50
2019-01-30T03:43:12.217Z,5.72
2019-01-30T03:45:42.435Z,6.58
2019-01-30T03:48:12.584Z,7.03
2019-01-30T03:50:42.498Z,7.22
2019-01-30T03:53:12.427Z,7.35
2019-01-30T03:55:43.009Z,7.30
2019-01-30T03:58:13.256Z,7.80
2019-01-30T04:00:43.358Z,6.92
2019-01-30T04:03:13.947Z,7.58
2019-01-30T04:05:43.857Z,8.60
2019-01-30T04:08:13.870Z,6.12
2019-01-30T04:10:44.005Z,7.60
2019-01-30T04:13:14.209Z,6.42
2019-01-30T04:15:47.165Z,7.03
2019-01-30T04:18:17.336Z,7.53
2019-01-30T04:20:47.496Z,7.60
2019-01-30T04:23:17.435Z,7.10
2019-01-30T04:25:47.452Z,5.05
2019-01-30T04:28:19.191Z,6.55
2019-01-30T04:30:49.440Z,6.30
2019-01-30T04:33:19.692Z,6.70
2019-01-30T04:35:49.876Z,6.92
2019-01-30T04:38:20.022Z,8.80
2019-01-30T04:40:50.025Z,7.30
2019-01-30T04:43:19.930Z,6.90
2019-01-30T04:45:50.417Z,5.20
2019-01-30T04:48:20.351Z,7.25
2019-01-30T04:54:23.057Z,5.83
2019-01-30T05:04:24.213Z,7.05
2019-01-30T05:06:54.249Z,6.20
2019-01-30T05:09:24.454Z,6.95
2019-01-30T05:11:54.368Z,6.47
2019-01-30T05:14:24.301Z,6.25
2019-01-30T05:16:54.997Z,6.78
2019-01-30T05:19:25.031Z,7.45
2019-01-30T05:21:54.959Z,6.90
2019-01-30T05:24:25.116Z,7.10
2019-01-30T05:26:55.696Z,6.70
2019-01-30T05:29:26.216Z,6.45
2019-01-30T05:32:01.356Z,5.85
2019-01-30T05:34:28.686Z,8.00
2019-01-30T05:36:58.860Z,7.30
2019-01-30T05:39:29.018Z,9.30
2019-01-30T05:41:59.513Z,9.05
2019-01-30T05:44:29.714Z,4.65
2019-01-30T05:46:59.684Z,6.30
2019-01-30T05:49:29.657Z,5.08
2019-01-30T05:51:59.660Z,7.28
2019-01-30T05:54:29.812Z,4.65
2019-01-30T05:57:00.041Z,6.97
2019-01-30T05:59:30.567Z,6.67
2019-01-30T06:02:11.495Z,6.45
2019-01-30T06:04:32.329Z,5.62
2019-01-30T06:07:02.497Z,6.87
2019-01-30T06:09:32.438Z,6.17
2019-01-30T06:12:02.599Z,4.90
2019-01-30T06:14:32.614Z,5.95
2019-01-30T06:17:02.841Z,6.80
2019-01-30T06:22:48.051Z,6.60
2019-01-30T06:25:18.045Z,7.20
2019-01-30T06:27:47.937Z,6.15
2019-01-30T06:30:19.309Z,7.62
2019-01-30T06:32:49.804Z,6.55
2019-01-30T06:35:20.310Z,7.08
2019-01-30T06:37:50.573Z,6.20
2019-01-30T06:40:27.321Z,6.17
2019-01-30T06:42:57.325Z,6.65
2019-01-30T06:45:27.342Z,6.67
2019-01-30T06:47:57.425Z,6.33
2019-01-30T06:50:27.680Z,7.03
2019-01-30T06:52:57.708Z,6.60
2019-01-30T06:55:28.281Z,5.58
2019-01-30T06:57:58.910Z,6.78
2019-01-30T07:00:29.086Z,6.65
2019-01-30T07:02:59.664Z,6.92
2019-01-30T07:05:30.458Z,7.90
2019-01-30T07:08:01.258Z,7.37
2019-01-30T07:10:31.288Z,7.87
2019-01-30T07:13:01.792Z,6.65
2019-01-30T07:15:32.171Z,6.80
2019-01-30T07:18:02.174Z,7.60
2019-01-30T07:20:32.529Z,7.65
2019-01-30T07:23:02.519Z,5.87
2019-01-30T07:25:32.441Z,6.08
2019-01-30T07:28:02.370Z,6.00
2019-01-30T07:30:36.184Z,5.37
2019-01-30T07:33:07.640Z,5.83
2019-01-30T07:35:37.740Z,6.62
2019-01-30T07:38:08.495Z,5.95
2019-01-30T07:40:38.510Z,4.53
2019-01-30T07:43:08.932Z,5.00
2019-01-30T07:45:39.030Z,5.45
2019-01-30T07:48:08.953Z,4.87
2019-01-30T07:50:39.128Z,5.17
2019-01-30T07:53:09.406Z,5.37
2019-01-30T07:55:39.450Z,5.05
2019-01-30T07:58:09.436Z,5.85
2019-01-30T08:00:39.617Z,5.40
2019-01-30T08:03:09.520Z,4.30
2019-01-30T08:05:39.879Z,4.23
2019-01-30T08:08:10.535Z,4.13
2019-01-30T08:10:40.568Z,4.03
2019-01-30T08:13:11.087Z,3.67
2019-01-30T08:15:41.201Z,2.90
2019-01-30T08:18:11.198Z,3.70
2019-01-30T08:20:41.318Z,4.07
2019-01-30T08:23:12.142Z,3.47
2019-01-30T08:25:42.636Z,4.37
2019-01-30T08:28:12.709Z,2.92
2019-01-30T08:30:43.334Z,3.60
2019-01-30T08:33:13.289Z,3.95
2019-01-30T08:35:43.262Z,2.15
2019-01-30T08:38:13.261Z,3.90
2019-01-30T08:40:43.321Z,3.13
2019-01-30T08:43:13.857Z,3.10
2019-01-30T08:45:43.847Z,3.95
2019-01-30T08:48:14.456Z,6.60
2019-01-30T08:50:45.008Z,5.23
2019-01-30T08:53:15.191Z,3.70
2019-01-30T08:55:45.298Z,3.30
2019-01-30T08:58:15.715Z,3.60
2019-01-30T09:00:45.688Z,4.00
2019-01-30T09:03:15.880Z,4.50
2019-01-30T09:05:46.771Z,3.30
2019-01-30T09:08:17.049Z,6.23
2019-01-30T09:10:47.033Z,3.50
2019-01-30T09:13:16.967Z,3.57
2019-01-30T09:15:47.457Z,3.90
2019-01-30T09:18:17.373Z,3.77
2019-01-30T09:20:47.537Z,3.60
2019-01-30T09:23:18.045Z,3.90
2019-01-30T09:25:47.989Z,4.00
2019-01-30T09:28:18.443Z,4.83
2019-01-30T09:30:49.378Z,5.10
2019-01-30T09:33:25.846Z,4.77
2019-01-30T09:35:52.854Z,6.20
2019-01-30T09:38:22.888Z,5.90
2019-01-30T09:40:54.126Z,4.50
2019-01-30T09:47:09.634Z,5.60
2019-01-30T09:49:39.632Z,4.13
2019-01-30T09:59:05.208Z,4.00
2019-01-30T10:08:54.366Z,7.83
2019-01-30T10:18:15.876Z,2.73
2019-01-30T10:27:54.688Z,1.13
2019-01-30T10:30:45.374Z,1.43
2019-01-30T10:33:15.505Z,1.47
2019-01-30T10:35:45.569Z,1.00
2019-01-30T10:38:16.173Z,1.57
2019-01-30T10:40:46.223Z,1.20
2019-01-30T10:54:45.063Z,0.90
2019-01-30T10:57:17.981Z,1.23
2019-01-30T11:06:40.862Z,1.00
2019-01-30T11:09:12.346Z,2.40
2019-01-30T11:11:42.367Z,1.77
2019-01-30T11:14:12.629Z,1.70
2019-01-30T11:16:43.077Z,0.87
2019-01-30T11:19:13.086Z,0.70
2019-01-30T11:21:43.888Z,0.90
2019-01-30T11:24:14.128Z,0.70
2019-01-30T11:26:44.054Z,1.77
2019-01-30T11:29:14.295Z,2.53
2019-01-30T11:31:44.329Z,4.30
2019-01-30T11:34:15.231Z,0.80
2019-01-30T11:36:45.995Z,1.13
2019-01-30T11:39:15.920Z,0.60
2019-01-30T11:41:46.472Z,0.90
2019-01-30T11:44:16.779Z,0.70
2019-01-30T11:46:46.970Z,0.80
2019-01-30T11:49:17.179Z,0.87
2019-01-30T11:51:47.701Z,0.70
2019-01-30T11:54:17.650Z,0.90
2019-01-30T11:56:47.981Z,0.63
2019-01-30T11:59:18.429Z,0.80
2019-01-30T12:01:48.399Z,0.90
2019-01-30T12:04:18.462Z,1.00
2019-01-30T12:06:48.472Z,0.70
2019-01-30T12:09:19.020Z,0.67
2019-01-30T12:11:49.447Z,0.70
2019-01-30T12:14:20.066Z,0.80
2019-01-30T12:16:50.054Z,0.83
2019-01-30T12:19:20.292Z,0.90
2019-01-30T12:21:50.426Z,0.70
2019-01-30T12:24:20.633Z,0.80
2019-01-30T12:26:50.866Z,1.00
2019-01-30T12:29:21.082Z,0.83
2019-01-30T12:31:51.304Z,0.70
2019-01-30T12:34:28.026Z,0.70
2019-01-30T12:36:53.484Z,0.70
2019-01-30T12:39:23.430Z,0.70
2019-01-30T12:41:53.574Z,0.70
2019-01-30T12:44:23.700Z,0.80
2019-01-30T12:46:53.620Z,0.90
2019-01-30T12:49:24.357Z,0.70
2019-01-30T12:51:54.360Z,0.70
2019-01-30T12:54:25.178Z,1.10
2019-01-30T12:56:55.420Z,0.87
2019-01-30T12:59:25.460Z,0.80
2019-01-30T13:01:55.616Z,0.80
2019-01-30T13:04:25.705Z,0.77
2019-01-30T13:06:55.938Z,1.03
2019-01-30T13:09:28.492Z,0.90
2019-01-30T13:11:57.699Z,0.70
2019-01-30T13:14:27.851Z,0.90
2019-01-30T13:16:58.074Z,0.77
2019-01-30T13:19:28.200Z,1.10
2019-01-30T13:21:58.407Z,0.70
2019-01-30T13:24:28.406Z,0.90
2019-01-30T13:26:58.458Z,0.80
2019-01-30T13:29:29.090Z,0.70
2019-01-30T13:32:02.569Z,0.70
2019-01-30T13:34:32.600Z,0.70
2019-01-30T13:37:02.575Z,0.80
2019-01-30T13:39:32.759Z,0.87
2019-01-30T13:42:03.006Z,0.70
2019-01-30T13:44:33.289Z,0.80
2019-01-30T13:47:03.507Z,0.90
2019-01-30T13:49:33.755Z,1.10
2019-01-30T13:52:04.282Z,0.80
2019-01-30T13:54:34.250Z,1.50
2019-01-30T13:57:04.293Z,0.77
2019-01-30T13:59:34.279Z,1.00
2019-01-30T14:02:04.455Z,0.87
2019-01-30T14:04:35.050Z,0.80
2019-01-30T14:07:05.204Z,1.13
2019-01-30T14:09:35.342Z,0.80
2019-01-30T14:12:05.720Z,0.90
2019-01-30T14:14:35.684Z,0.80
2019-01-30T14:20:57.026Z,0.90
2019-01-30T15:35:13.076Z,0.93
2019-01-30T15:45:03.027Z,1.30
2019-01-30T15:47:34.782Z,1.13
2019-01-30T15:50:07.307Z,1.00
2019-01-30T15:52:37.841Z,1.33
2019-01-30T15:55:10.023Z,0.90
2019-01-30T15:57:40.901Z,1.07
2019-01-30T16:00:26.148Z,1.30
2019-01-30T16:02:57.252Z,1.03
2019-01-30T16:05:28.422Z,1.90
2019-01-30T16:07:59.180Z,2.40
2019-01-30T16:10:29.992Z,2.30
2019-01-30T16:13:00.818Z,1.60
2019-01-30T16:15:39.240Z,1.77
2019-01-30T16:18:09.977Z,1.87
2019-01-30T16:20:41.013Z,1.40
2019-01-30T16:23:11.319Z,1.30
2019-01-30T16:25:41.879Z,2.00
2019-01-30T16:28:12.637Z,2.20
2019-01-30T16:30:43.046Z,2.05
2019-01-30T16:33:13.447Z,1.50
2019-01-30T16:35:55.794Z,1.72
2019-01-30T16:38:20.247Z,2.00
2019-01-30T16:40:51.437Z,2.00
2019-01-30T16:43:22.175Z,2.30
2019-01-30T16:45:52.574Z,1.80
2019-01-30T16:48:23.169Z,2.80
2019-01-30T16:50:54.487Z,2.70
2019-01-30T16:53:25.492Z,1.60
2019-01-30T16:55:56.114Z,1.40
2019-01-30T16:58:27.167Z,2.53
2019-01-30T17:00:58.414Z,1.97
2019-01-30T17:03:29.704Z,1.10
2019-01-30T17:06:07.403Z,3.37
2019-01-30T17:08:34.432Z,2.43
2019-01-30T17:11:05.808Z,2.53
2019-01-30T17:13:37.201Z,2.03
2019-01-30T17:16:08.098Z,1.73
2019-01-30T17:18:39.150Z,1.70
2019-01-30T17:21:10.242Z,2.20
2019-01-30T17:23:41.369Z,1.43
2019-01-30T17:26:12.564Z,1.93
2019-01-30T17:28:44.384Z,2.00
2019-01-30T17:31:23.922Z,1.77
2019-01-30T17:33:55.848Z,1.80
2019-01-30T17:36:27.363Z,2.70
2019-01-30T17:38:58.658Z,2.10
2019-01-30T17:41:30.214Z,1.93
2019-01-30T17:44:01.983Z,1.85
2019-01-30T17:46:33.337Z,2.30
2019-01-30T17:49:05.136Z,1.98
2019-01-30T17:51:36.380Z,1.30
2019-01-30T17:54:07.951Z,1.60
2019-01-30T17:56:39.347Z,1.92
2019-01-30T17:59:10.763Z,2.05
2019-01-30T18:01:41.933Z,2.08
2019-01-30T18:04:13.306Z,2.05
2019-01-30T18:06:45.361Z,2.42
2019-01-30T18:09:17.048Z,1.85
2019-01-30T18:11:47.853Z,2.20
2019-01-30T18:14:22.196Z,2.15
2019-01-30T18:16:54.117Z,2.05
2019-01-30T18:19:25.564Z,2.02
2019-01-30T18:21:57.152Z,2.60
2019-01-30T18:24:28.201Z,2.10
2019-01-30T18:26:59.508Z,2.30
2019-01-30T18:29:30.578Z,2.10
2019-01-30T18:32:01.711Z,2.10
2019-01-30T18:34:32.772Z,2.50
2019-01-30T18:37:04.331Z,2.60
2019-01-30T18:39:35.449Z,2.50
2019-01-30T18:42:07.122Z,2.60
2019-01-30T18:44:38.662Z,4.97
2019-01-30T18:47:10.097Z,2.37
2019-01-30T18:49:42.475Z,2.67
2019-01-30T18:52:14.890Z,2.20
2019-01-30T18:54:46.461Z,2.50
2019-01-30T18:57:17.781Z,2.00
2019-01-30T18:59:48.959Z,3.22
2019-01-30T19:02:20.191Z,2.55
2019-01-30T19:04:51.296Z,2.17
2019-01-30T19:07:22.306Z,3.92
2019-01-30T19:09:53.454Z,2.90
2019-01-30T19:12:24.615Z,2.35
2019-01-30T19:14:56.091Z,2.25
2019-01-30T19:17:27.664Z,2.12
2019-01-30T19:19:59.102Z,3.80
2019-01-30T19:22:31.202Z,2.92
2019-01-30T19:28:47.465Z,2.95
2019-01-30T19:31:20.218Z,1.87
2019-01-30T19:33:52.734Z,3.15
2019-01-30T19:36:24.360Z,7.67
2019-01-30T19:38:56.173Z,4.83
2019-01-30T19:41:27.797Z,4.87
2019-01-30T19:43:59.770Z,6.65
2019-01-30T19:46:31.257Z,4.12
2019-01-30T19:49:03.050Z,4.87
2019-01-30T19:51:34.719Z,3.42
2019-01-30T19:54:06.701Z,4.47
2019-01-30T19:56:38.402Z,2.55
2019-01-30T19:59:17.279Z,2.90
2019-01-30T20:05:35.346Z,3.22
2019-01-30T20:08:07.463Z,3.92
2019-01-30T20:10:40.175Z,3.00
2019-01-30T20:17:03.058Z,4.12
2019-01-30T20:19:35.239Z,3.30
2019-01-30T20:26:10.424Z,2.95
2019-01-30T20:28:45.548Z,2.40
2019-01-30T20:31:17.465Z,3.02
2019-01-30T20:33:49.725Z,2.70
2019-01-30T20:36:22.185Z,2.90
2019-01-30T20:38:54.149Z,4.80
2019-01-30T20:41:25.936Z,3.95
2019-01-30T20:43:57.478Z,4.47
2019-01-30T20:46:30.544Z,5.08
2019-01-30T20:49:04.545Z,4.90
2019-01-30T20:51:36.228Z,5.80
2019-01-30T20:54:08.302Z,5.47
2019-01-30T20:56:40.021Z,4.72
2019-01-30T20:59:12.411Z,4.22
2019-01-30T21:01:44.479Z,5.42
2019-01-30T21:04:18.504Z,4.60
2019-01-30T21:06:49.963Z,3.47
2019-01-30T21:09:21.756Z,3.40
2019-01-30T21:11:54.470Z,3.33
2019-01-30T21:14:26.551Z,3.12
2019-01-30T21:16:58.511Z,3.00
2019-01-30T21:19:29.948Z,4.65
2019-01-30T21:22:01.334Z,3.80
2019-01-30T21:24:32.832Z,4.92
2019-01-30T21:27:06.638Z,4.67
2019-01-30T21:29:38.749Z,4.12
2019-01-30T21:32:11.625Z,5.47
2019-01-30T21:34:43.186Z,3.20
2019-01-30T21:37:14.579Z,3.27
2019-01-30T21:39:46.715Z,2.50
2019-01-30T21:42:18.341Z,3.95
2019-01-30T21:44:50.935Z,4.40
2019-01-30T21:47:22.020Z,3.87
2019-01-30T21:49:54.203Z,3.98
2019-01-30T21:52:25.503Z,4.20
2019-01-30T21:54:56.454Z,3.60
2019-01-30T21:57:27.161Z,5.30
2019-01-30T21:59:58.278Z,6.97
2019-01-30T22:02:29.346Z,5.40
2019-01-30T22:05:00.314Z,4.08
2019-01-30T22:07:31.299Z,4.47
2019-01-30T22:10:02.061Z,4.20
2019-01-30T22:12:32.590Z,4.05
2019-01-30T22:15:03.523Z,3.12
2019-01-30T22:17:34.323Z,4.12
2019-01-30T22:20:05.972Z,3.52
2019-01-30T22:22:36.995Z,3.27
2019-01-30T22:25:19.653Z,3.08
2019-01-30T22:27:41.016Z,3.62
2019-01-30T22:30:21.201Z,4.95
2019-01-30T22:32:52.348Z,3.65
2019-01-30T22:35:22.360Z,4.37
2019-01-30T22:37:52.352Z,3.70
2019-01-30T22:40:22.459Z,4.40
2019-01-30T22:42:52.888Z,4.12
2019-01-30T22:45:23.235Z,3.37
2019-01-30T22:47:54.138Z,4.12
2019-01-30T22:50:24.303Z,3.40
2019-01-30T22:52:54.591Z,4.15
2019-01-30T22:55:25.102Z,4.30
2019-01-30T22:57:55.257Z,4.37
2019-01-30T23:01:15.127Z,4.30
2019-01-30T23:04:16.522Z,4.28
2019-01-30T23:07:37.578Z,3.30
2019-01-30T23:11:05.632Z,4.20
2019-01-30T23:14:31.765Z,4.25
2019-01-30T23:17:59.475Z,3.00
2019-01-30T23:20:41.025Z,5.83
2019-01-30T23:23:43.648Z,5.08
2019-01-30T23:27:01.572Z,6.25
2019-01-30T23:30:32.172Z,6.60
2019-01-30T23:33:35.623Z,5.22
2019-01-30T23:36:46.115Z,5.97
2019-01-30T23:39:55.350Z,5.25
2019-01-30T23:43:10.111Z,5.55
2019-01-30T23:45:56.793Z,5.45
2019-01-30T23:49:07.602Z,6.15
2019-01-30T23:52:11.905Z,4.90
2019-01-30T23:55:08.572Z,6.33
2019-01-30T23:58:56.825Z,5.90
